Time;durP1;ratioP1;P1;durP2;ratioP2;P2;SDS_P1;SDS_P2;PMS_P1;PMS_P2;Temp;Humidity;BMP_temperature;BMP_pressure;BME280_temperature;BME280_humidity;BME280_pressure;Samples;Min_cycle;Max_cycle;Signal;HPM_P1;HPM_P2
2023/09/13 00:01:57;;;;;;;10.25;8.38;;;;;;;;;;5104072;28;20055;-58
2023/09/13 00:04:23;;;;;;;10.82;8.88;;;;;;;;;;5102836;27;20055;-58
2023/09/13 00:06:50;;;;;;;14.85;9.02;;;;;;;;;;5105642;27;20048;-57
2023/09/13 00:09:17;;;;;;;12.73;9.35;;;;;;;;;;5117024;27;20052;-58
2023/09/13 00:11:43;;;;;;;15.57;10.32;;;;;;;;;;5104619;28;20109;-57
2023/09/13 00:14:10;;;;;;;11.63;9.45;;;;;;;;;;5115783;27;20055;-58
2023/09/13 00:16:36;;;;;;;12.55;10.05;;;;;;;;;;5124708;27;20429;-58
2023/09/13 00:19:04;;;;;;;11.95;8.77;;;;;;;;;;5127120;27;20586;-57
2023/09/13 00:21:31;;;;;;;12.55;9.48;;;;;;;;;;5144199;27;20059;-58
2023/09/13 00:23:58;;;;;;;11.02;9.10;;;;;;;;;;5113493;27;20059;-57
2023/09/13 00:26:25;;;;;;;11.52;9.38;;;;;;;;;;5104485;28;20416;-58
2023/09/13 00:28:51;;;;;;;15.02;10.85;;;;;;;;;;5104168;28;20079;-57
2023/09/13 00:31:17;;;;;;;12.95;9.32;;;;;;;;;;5110000;27;20059;-58
2023/09/13 00:33:44;;;;;;;10.80;9.55;;;;;;;;;;5116058;27;20127;-57
2023/09/13 00:36:11;;;;;;;15.07;10.30;;;;;;;;;;5103723;28;20060;-59
2023/09/13 00:38:37;;;;;;;13.82;10.27;;;;;;;;;;5105811;27;20052;-59
2023/09/13 00:41:04;;;;;;;12.45;10.02;;;;;;;;;;5124526;27;20466;-59
2023/09/13 00:43:30;;;;;;;14.32;10.10;;;;;;;;;;5128222;27;20059;-58
2023/09/13 00:45:57;;;;;;;13.50;10.02;;;;;;;;;;5137841;27;20111;-59
2023/09/13 00:48:23;;;;;;;14.05;10.32;;;;;;;;;;5105549;27;20059;-59
2023/09/13 00:50:50;;;;;;;12.15;9.60;;;;;;;;;;5139933;27;20398;-58
2023/09/13 00:53:20;;;;;;;13.60;10.43;;;;;;;;;;5145091;27;20053;-57
2023/09/13 00:55:47;;;;;;;13.43;9.57;;;;;;;;;;5145323;27;20059;-59
2023/09/13 00:58:15;;;;;;;15.55;10.63;;;;;;;;;;5144907;27;20051;-57
2023/09/13 01:00:42;;;;;;;14.93;11.02;;;;;;;;;;5106596;27;20424;-56
2023/09/13 01:03:08;;;;;;;15.25;10.05;;;;;;;;;;5119041;27;20583;-57
2023/09/13 01:05:36;;;;;;;15.40;11.23;;;;;;;;;;5104249;28;20052;-58
2023/09/13 01:08:03;;;;;;;13.60;10.40;;;;;;;;;;5104222;28;20494;-57
2023/09/13 01:10:29;;;;;;;14.63;10.43;;;;;;;;;;5119245;27;20619;-58
2023/09/13 01:12:56;;;;;;;18.27;10.77;;;;;;;;;;5123716;27;20104;-57
2023/09/13 01:15:23;;;;;;;14.40;11.27;;;;;;;;;;5106563;27;20191;-58
2023/09/13 01:17:54;;;;;;;14.73;11.00;;;;;;;;;;5131960;27;20448;-58
2023/09/13 01:20:30;;;;;;;15.52;10.43;;;;;;;;;;5142234;27;20459;-58
2023/09/13 01:23:15;;;;;;;12.73;10.20;;;;;;;;;;5144815;27;20580;-54
2023/09/13 01:26:00;;;;;;;11.95;9.40;;;;;;;;;;5135364;27;20460;-58
2023/09/13 01:28:27;;;;;;;;;;;;;;;;;;5123339;27;20055;-58
2023/09/13 01:30:54;;;;;;;10.05;8.93;;;;;;;;;;5122694;27;46857;-57
2023/09/13 01:33:20;;;;;;;11.30;10.07;;;;;;;;;;5123837;27;20051;-56
2023/09/13 01:35:47;;;;;;;15.73;10.63;;;;;;;;;;5123912;27;20083;-58
2023/09/13 01:38:13;;;;;;;14.77;11.60;;;;;;;;;;5123536;27;20451;-57
2023/09/13 01:40:41;;;;;;;14.93;10.70;;;;;;;;;;5119164;27;20437;-58
2023/09/13 01:43:07;;;;;;;17.27;12.00;;;;;;;;;;5122220;27;20519;-60
2023/09/13 01:45:35;;;;;;;14.65;11.23;;;;;;;;;;5142088;27;20059;-56
2023/09/13 01:48:03;;;;;;;14.02;11.30;;;;;;;;;;5105105;27;20059;-58
2023/09/13 01:50:30;;;;;;;16.38;11.57;;;;;;;;;;5118238;27;20055;-58
2023/09/13 01:52:57;;;;;;;13.13;11.52;;;;;;;;;;5122816;27;20052;-57
2023/09/13 01:55:23;;;;;;;15.82;11.43;;;;;;;;;;5105562;27;20055;-57
2023/09/13 01:57:50;;;;;;;16.90;12.13;;;;;;;;;;5122630;27;20592;-57
2023/09/13 02:00:17;;;;;;;16.38;12.20;;;;;;;;;;5107761;27;20048;-56
2023/09/13 02:02:43;;;;;;;18.05;11.95;;;;;;;;;;5106673;28;20063;-57
2023/09/13 02:05:09;;;;;;;19.58;12.30;;;;;;;;;;5106621;28;20052;-57
2023/09/13 02:07:36;;;;;;;45.92;15.43;;;;;;;;;;5109286;27;20052;-59
2023/09/13 02:10:02;;;;;;;24.10;11.85;;;;;;;;;;5125073;27;20051;-58
2023/09/13 02:12:29;;;;;;;18.35;11.88;;;;;;;;;;5143756;27;20047;-54
2023/09/13 02:14:55;;;;;;;15.88;11.40;;;;;;;;;;5147485;27;20172;-59
2023/09/13 02:17:22;;;;;;;29.20;11.48;;;;;;;;;;5131461;27;20179;-58
2023/09/13 02:19:49;;;;;;;12.52;10.98;;;;;;;;;;5127017;27;20565;-59
2023/09/13 02:22:15;;;;;;;20.55;11.73;;;;;;;;;;5110930;27;20061;-59
2023/09/13 02:24:42;;;;;;;24.13;12.00;;;;;;;;;;5126232;27;20552;-58
2023/09/13 02:27:09;;;;;;;31.42;11.65;;;;;;;;;;5125728;27;20052;-58
2023/09/13 02:29:35;;;;;;;15.63;11.23;;;;;;;;;;5144425;27;20854;-58
2023/09/13 02:32:02;;;;;;;13.75;10.77;;;;;;;;;;5129764;27;20140;-58
2023/09/13 02:34:28;;;;;;;17.33;11.95;;;;;;;;;;5126693;27;20175;-59
2023/09/13 02:36:55;;;;;;;20.00;12.18;;;;;;;;;;5126909;27;20052;-59
2023/09/13 02:39:35;;;;;;;13.32;11.52;;;;;;;;;;5118897;27;20526;-56
2023/09/13 02:42:02;;;;;;;28.85;11.23;;;;;;;;;;5118341;27;20052;-59
2023/09/13 02:44:30;;;;;;;19.27;12.95;;;;;;;;;;5126967;27;20059;-58
2023/09/13 02:46:57;;;;;;;12.55;10.95;;;;;;;;;;5107131;27;20048;-56
2023/09/13 02:49:24;;;;;;;13.82;11.32;;;;;;;;;;5117820;27;20067;-59
2023/09/13 02:51:51;;;;;;;14.07;10.73;;;;;;;;;;5132718;27;20156;-55
2023/09/13 02:54:19;;;;;;;12.13;10.52;;;;;;;;;;5125978;27;20622;-59
2023/09/13 02:56:46;;;;;;;13.80;10.95;;;;;;;;;;5126556;27;20083;-58
2023/09/13 02:59:12;;;;;;;13.52;11.35;;;;;;;;;;5125585;27;20047;-58
2023/09/13 03:01:40;;;;;;;12.60;10.55;;;;;;;;;;5125624;27;20071;-58
2023/09/13 03:04:06;;;;;;;13.65;10.85;;;;;;;;;;5126316;27;20082;-59
2023/09/13 03:06:33;;;;;;;14.52;11.55;;;;;;;;;;5127056;27;20051;-58
2023/09/13 03:08:59;;;;;;;20.92;11.27;;;;;;;;;;5124987;27;20056;-56
2023/09/13 03:11:26;;;;;;;12.32;10.75;;;;;;;;;;5126442;27;20055;-59
2023/09/13 03:13:53;;;;;;;13.57;10.65;;;;;;;;;;5135786;27;20425;-59
2023/09/13 03:16:21;;;;;;;14.80;10.77;;;;;;;;;;5135998;27;20051;-58
2023/09/13 03:18:49;;;;;;;12.55;10.50;;;;;;;;;;5146890;27;20051;-59
2023/09/13 03:21:20;;;;;;;12.73;10.73;;;;;;;;;;5130605;27;20047;-58
2023/09/13 03:23:50;;;;;;;11.98;10.30;;;;;;;;;;5145871;27;20507;-58
2023/09/13 03:26:18;;;;;;;12.38;9.73;;;;;;;;;;5140611;27;20764;-57
2023/09/13 03:28:48;;;;;;;13.02;10.63;;;;;;;;;;5129397;27;20055;-55
2023/09/13 03:31:15;;;;;;;14.50;11.15;;;;;;;;;;5126005;27;20500;-59
2023/09/13 03:33:42;;;;;;;12.00;9.95;;;;;;;;;;5126081;27;20054;-58
2023/09/13 03:36:10;;;;;;;12.75;10.73;;;;;;;;;;5127742;27;20051;-58
2023/09/13 03:38:38;;;;;;;14.38;11.07;;;;;;;;;;5105082;27;20052;-59
2023/09/13 03:41:05;;;;;;;14.32;10.65;;;;;;;;;;5105359;28;20532;-58
2023/09/13 03:43:32;;;;;;;14.55;11.13;;;;;;;;;;5105603;28;20060;-58
2023/09/13 03:45:58;;;;;;;15.93;11.98;;;;;;;;;;5124218;27;20100;-59
2023/09/13 03:48:25;;;;;;;17.50;13.98;;;;;;;;;;5101376;27;20082;-57
2023/09/13 03:50:51;;;;;;;17.75;13.43;;;;;;;;;;5105197;28;20060;-57
2023/09/13 03:53:18;;;;;;;20.88;15.82;;;;;;;;;;5104622;28;20109;-57
2023/09/13 03:55:44;;;;;;;22.45;15.65;;;;;;;;;;5111359;27;20534;-56
2023/09/13 03:58:10;;;;;;;22.40;16.60;;;;;;;;;;5138860;27;20564;-57
2023/09/13 04:00:37;;;;;;;26.48;16.90;;;;;;;;;;5140961;27;20055;-58
2023/09/13 04:03:04;;;;;;;20.88;15.90;;;;;;;;;;5108849;27;20051;-57
2023/09/13 04:05:31;;;;;;;27.52;16.38;;;;;;;;;;5105087;28;20056;-56
2023/09/13 04:07:58;;;;;;;23.17;16.98;;;;;;;;;;5086170;28;20135;-58
2023/09/13 04:10:24;;;;;;;22.80;15.27;;;;;;;;;;5125920;27;20139;-57
2023/09/13 04:12:51;;;;;;;25.80;15.98;;;;;;;;;;5123665;27;20495;-59
2023/09/13 04:15:17;;;;;;;22.40;15.48;;;;;;;;;;5107839;27;20062;-58
2023/09/13 04:17:44;;;;;;;21.50;16.00;;;;;;;;;;5125695;27;20570;-57
2023/09/13 04:20:10;;;;;;;19.45;15.13;;;;;;;;;;5124544;27;20523;-59
2023/09/13 04:22:37;;;;;;;20.80;14.27;;;;;;;;;;5106096;27;20498;-58
2023/09/13 04:25:07;;;;;;;21.85;14.77;;;;;;;;;;5127184;27;20543;-59
2023/09/13 04:27:33;;;;;;;19.90;14.57;;;;;;;;;;5146411;27;20051;-58
2023/09/13 04:30:00;;;;;;;19.83;13.60;;;;;;;;;;5105191;27;20062;-58
2023/09/13 04:32:27;;;;;;;20.67;14.15;;;;;;;;;;5145796;27;20050;-59
2023/09/13 04:34:53;;;;;;;21.38;14.48;;;;;;;;;;5125627;27;20579;-57
2023/09/13 04:37:20;;;;;;;20.92;14.38;;;;;;;;;;5123723;27;20433;-58
2023/09/13 04:39:46;;;;;;;20.83;14.07;;;;;;;;;;5127153;27;20051;-59
2023/09/13 04:42:13;;;;;;;18.05;14.00;;;;;;;;;;5128995;27;20086;-56
2023/09/13 04:44:40;;;;;;;18.40;13.70;;;;;;;;;;5104279;27;20546;-57
2023/09/13 04:47:06;;;;;;;20.23;14.80;;;;;;;;;;5117662;27;20055;-58
2023/09/13 04:49:33;;;;;;;22.00;14.48;;;;;;;;;;5125479;27;20574;-59
2023/09/13 04:52:00;;;;;;;22.45;14.70;;;;;;;;;;5111671;27;20043;-58
2023/09/13 04:54:27;;;;;;;23.10;14.43;;;;;;;;;;5124916;27;20497;-57
2023/09/13 04:56:53;;;;;;;22.60;16.05;;;;;;;;;;5142373;27;20139;-59
2023/09/13 04:59:23;;;;;;;21.48;14.52;;;;;;;;;;5124859;27;20117;-58
2023/09/13 05:01:49;;;;;;;26.48;15.90;;;;;;;;;;5106628;27;20474;-59
2023/09/13 05:04:17;;;;;;;26.83;16.20;;;;;;;;;;5137889;27;20124;-58
2023/09/13 05:06:43;;;;;;;23.95;16.08;;;;;;;;;;5145716;27;20138;-56
2023/09/13 05:09:10;;;;;;;22.83;15.57;;;;;;;;;;5138968;27;20628;-57
2023/09/13 05:11:36;;;;;;;31.27;18.48;;;;;;;;;;5104188;28;20089;-57
2023/09/13 05:14:13;;;;;;;29.23;17.85;;;;;;;;;;5132453;27;20091;-59
2023/09/13 05:16:39;;;;;;;32.00;19.30;;;;;;;;;;5144878;27;20055;-60
2023/09/13 05:19:06;;;;;;;37.38;20.10;;;;;;;;;;5126838;27;20047;-57
2023/09/13 05:21:33;;;;;;;30.90;19.27;;;;;;;;;;5134746;27;20143;-57
2023/09/13 05:24:00;;;;;;;32.08;20.20;;;;;;;;;;5103365;28;20143;-61
2023/09/13 05:26:27;;;;;;;34.28;21.52;;;;;;;;;;5104182;27;20051;-59
2023/09/13 05:28:53;;;;;;;30.20;20.35;;;;;;;;;;5103801;27;20051;-58
2023/09/13 05:31:20;;;;;;;35.83;20.52;;;;;;;;;;5123719;27;20056;-56
2023/09/13 05:33:46;;;;;;;30.77;20.17;;;;;;;;;;5122576;27;20142;-54
2023/09/13 05:36:14;;;;;;;32.95;20.25;;;;;;;;;;5129031;27;20437;-58
2023/09/13 05:38:40;;;;;;;32.20;21.05;;;;;;;;;;5140602;27;20557;-58
2023/09/13 05:41:10;;;;;;;34.60;21.98;;;;;;;;;;5137004;27;20059;-58
2023/09/13 05:43:37;;;;;;;34.10;19.23;;;;;;;;;;5137729;27;20056;-58
2023/09/13 05:46:04;;;;;;;30.73;19.45;;;;;;;;;;5124893;27;20101;-57
2023/09/13 05:48:31;;;;;;;13.25;9.65;;;;;;;;;;5119730;27;20509;-57
2023/09/13 05:50:58;;;;;;;10.30;5.93;;;;;;;;;;5140524;27;20120;-58
2023/09/13 05:53:24;;;;;;;5.68;2.60;;;;;;;;;;5126194;27;20140;-57
2023/09/13 05:55:51;;;;;;;2.63;1.48;;;;;;;;;;5139485;27;20119;-58
2023/09/13 05:58:18;;;;;;;2.22;1.00;;;;;;;;;;5125552;27;20052;-55
2023/09/13 06:00:50;;;;;;;4.13;1.02;;;;;;;;;;5129752;27;20059;-56
2023/09/13 06:03:17;;;;;;;4.90;1.10;;;;;;;;;;5142662;27;20051;-59
2023/09/13 06:05:44;;;;;;;4.40;1.20;;;;;;;;;;5144935;27;20043;-58
2023/09/13 06:08:10;;;;;;;4.90;0.90;;;;;;;;;;5142400;27;20128;-57
2023/09/13 06:10:37;;;;;;;2.80;0.88;;;;;;;;;;5141002;27;20048;-57
2023/09/13 06:13:03;;;;;;;1.25;0.70;;;;;;;;;;5126239;27;20097;-56
2023/09/13 06:15:30;;;;;;;1.90;0.60;;;;;;;;;;5123899;27;20083;-59
2023/09/13 06:17:57;;;;;;;3.20;0.60;;;;;;;;;;5122889;27;20085;-58
2023/09/13 06:20:24;;;;;;;1.38;0.60;;;;;;;;;;5123699;27;20062;-57
2023/09/13 06:22:50;;;;;;;0.95;0.50;;;;;;;;;;5123636;27;20059;-58
2023/09/13 06:25:19;;;;;;;1.98;1.23;;;;;;;;;;5122143;27;20097;-59
2023/09/13 06:27:45;;;;;;;1.92;0.73;;;;;;;;;;5121903;27;20059;-59
2023/09/13 06:30:15;;;;;;;1.98;0.82;;;;;;;;;;5117906;27;20054;-59
2023/09/13 06:32:41;;;;;;;2.10;0.80;;;;;;;;;;5124100;27;20140;-58
2023/09/13 06:35:10;;;;;;;1.85;0.80;;;;;;;;;;5095046;27;20077;-59
2023/09/13 06:37:41;;;;;;;1.38;0.98;;;;;;;;;;5123200;27;20044;-58
2023/09/13 06:40:08;;;;;;;2.08;0.98;;;;;;;;;;5122614;27;20504;-58
2023/09/13 06:42:35;;;;;;;2.17;0.82;;;;;;;;;;5123600;27;20105;-58
2023/09/13 06:45:22;;;;;;;3.70;1.20;;;;;;;;;;5122577;27;20537;-59
2023/09/13 06:47:53;;;;;;;2.38;0.73;;;;;;;;;;5122375;27;20870;-57
2023/09/13 06:50:19;;;;;;;3.75;0.73;;;;;;;;;;5132413;27;20047;-59
2023/09/13 06:53:06;;;;;;;5.10;1.15;;;;;;;;;;5125096;27;20429;-56
2023/09/13 06:55:54;;;;;;;3.22;1.38;;;;;;;;;;5145755;27;20646;-56
2023/09/13 06:58:23;;;;;;;4.95;1.23;;;;;;;;;;5139877;27;20169;-58
2023/09/13 07:00:54;;;;;;;3.72;1.33;;;;;;;;;;5126418;27;20138;-58
2023/09/13 07:03:40;;;;;;;3.25;1.00;;;;;;;;;;5130284;27;20052;-57
2023/09/13 07:06:15;;;;;;;4.30;1.55;;;;;;;;;;5121210;27;20051;-58
2023/09/13 07:08:42;;;;;;;4.70;1.60;;;;;;;;;;5108639;27;20094;-58
2023/09/13 07:11:09;;;;;;;4.53;1.70;;;;;;;;;;5134854;27;20066;-58
2023/09/13 07:13:35;;;;;;;9.23;3.03;;;;;;;;;;5137254;27;20528;-58
2023/09/13 07:16:02;;;;;;;10.15;1.80;;;;;;;;;;5144677;27;20051;-59
2023/09/13 07:18:28;;;;;;;4.43;1.52;;;;;;;;;;5127182;27;20519;-56
2023/09/13 07:20:56;;;;;;;3.22;2.00;;;;;;;;;;5123004;27;20348;-59
2023/09/13 07:23:23;;;;;;;4.18;1.60;;;;;;;;;;5124653;27;20051;-58
2023/09/13 07:25:49;;;;;;;5.25;1.60;;;;;;;;;;5131281;27;20143;-59
2023/09/13 07:28:16;;;;;;;3.58;1.75;;;;;;;;;;5125896;27;20055;-58
2023/09/13 07:30:43;;;;;;;4.53;1.70;;;;;;;;;;5125429;27;20062;-58
2023/09/13 07:33:09;;;;;;;5.57;1.83;;;;;;;;;;5126408;27;20043;-58
2023/09/13 07:35:35;;;;;;;4.57;1.77;;;;;;;;;;5125761;27;20055;-59
2023/09/13 07:38:02;;;;;;;2.67;1.60;;;;;;;;;;5126533;27;20055;-58
2023/09/13 07:40:29;;;;;;;4.88;1.85;;;;;;;;;;5125787;27;20056;-58
2023/09/13 07:42:55;;;;;;;15.15;3.40;;;;;;;;;;5125396;27;20059;-58
2023/09/13 07:45:22;;;;;;;8.50;2.30;;;;;;;;;;5125846;27;20420;-59
2023/09/13 07:47:49;;;;;;;6.32;1.95;;;;;;;;;;5107667;27;20150;-59
2023/09/13 07:50:42;;;;;;;5.88;2.42;;;;;;;;;;5107594;27;20063;-60
2023/09/13 07:53:10;;;;;;;4.88;1.48;;;;;;;;;;5123006;27;20502;-58
2023/09/13 07:55:37;;;;;;;2.60;1.30;;;;;;;;;;5125717;27;20062;-60
2023/09/13 07:58:04;;;;;;;7.20;1.73;;;;;;;;;;5125719;27;20134;-59
2023/09/13 08:00:32;;;;;;;3.72;1.77;;;;;;;;;;5125016;27;20457;-59
2023/09/13 08:02:59;;;;;;;8.10;1.98;;;;;;;;;;5125347;27;20434;-59
2023/09/13 08:05:26;;;;;;;2.72;1.40;;;;;;;;;;5108523;27;20132;-60
2023/09/13 08:07:52;;;;;;;3.22;1.45;;;;;;;;;;5124345;27;20108;-58
2023/09/13 08:10:21;;;;;;;7.20;1.60;;;;;;;;;;5125568;27;20048;-58
2023/09/13 08:12:48;;;;;;;4.22;1.52;;;;;;;;;;5125269;27;20048;-59
2023/09/13 08:15:15;;;;;;;4.75;1.70;;;;;;;;;;5125439;27;20437;-60
2023/09/13 08:17:42;;;;;;;3.63;1.88;;;;;;;;;;5125133;27;20055;-59
2023/09/13 08:20:08;;;;;;;3.72;1.65;;;;;;;;;;5124562;27;20065;-57
2023/09/13 08:22:36;;;;;;;3.22;1.40;;;;;;;;;;5125601;27;20051;-59
2023/09/13 08:25:07;;;;;;;2.38;1.40;;;;;;;;;;5107267;27;20127;-57
2023/09/13 08:27:36;;;;;;;2.10;1.30;;;;;;;;;;5107220;27;20051;-59
2023/09/13 08:30:04;;;;;;;6.80;1.88;;;;;;;;;;5126273;27;20059;-59
2023/09/13 08:32:31;;;;;;;2.58;1.10;;;;;;;;;;5125862;27;20621;-59
2023/09/13 08:34:58;;;;;;;2.55;1.20;;;;;;;;;;5101218;27;20047;-60
2023/09/13 08:37:24;;;;;;;2.58;1.30;;;;;;;;;;5125164;27;20636;-59
2023/09/13 08:39:52;;;;;;;4.20;1.45;;;;;;;;;;5125280;27;20124;-59
2023/09/13 08:42:18;;;;;;;3.65;1.35;;;;;;;;;;5124612;27;20135;-59
2023/09/13 08:44:45;;;;;;;11.82;2.35;;;;;;;;;;5124702;27;20100;-57
2023/09/13 08:47:11;;;;;;;53.25;5.18;;;;;;;;;;5124781;27;20516;-59
2023/09/13 08:49:38;;;;;;;9.82;2.00;;;;;;;;;;5125127;27;20051;-59
2023/09/13 08:52:05;;;;;;;7.78;2.00;;;;;;;;;;5124612;27;20067;-59
2023/09/13 08:54:32;;;;;;;4.25;1.52;;;;;;;;;;5122791;27;20547;-59
2023/09/13 08:57:20;;;;;;;3.40;1.08;;;;;;;;;;5104037;28;20501;-59
2023/09/13 08:59:47;;;;;;;4.28;1.30;;;;;;;;;;5104292;28;20071;-59
2023/09/13 09:02:18;;;;;;;11.75;1.92;;;;;;;;;;5112920;27;20067;-60
2023/09/13 09:04:47;;;;;;;4.15;1.77;;;;;;;;;;5124628;27;20522;-59
2023/09/13 09:07:14;;;;;;;3.97;1.38;;;;;;;;;;5123803;27;20055;-59
2023/09/13 09:09:41;;;;;;;3.08;1.55;;;;;;;;;;5123541;27;20051;-59
2023/09/13 09:12:09;;;;;;;3.00;1.13;;;;;;;;;;5122578;27;20056;-59
2023/09/13 09:14:36;;;;;;;7.53;2.17;;;;;;;;;;5130538;27;20086;-59
2023/09/13 09:17:03;;;;;;;3.63;1.65;;;;;;;;;;5134221;27;20048;-60
2023/09/13 09:19:30;;;;;;;4.50;2.05;;;;;;;;;;5112478;27;20048;-60
2023/09/13 09:22:00;;;;;;;2.03;1.45;;;;;;;;;;5124394;27;20055;-57
2023/09/13 09:24:26;;;;;;;3.05;1.48;;;;;;;;;;5105598;27;20052;-60
2023/09/13 09:26:54;;;;;;;3.40;1.80;;;;;;;;;;5101405;27;20063;-59
2023/09/13 09:29:20;;;;;;;4.43;1.60;;;;;;;;;;5122467;27;20059;-59
2023/09/13 09:31:51;;;;;;;5.55;1.60;;;;;;;;;;5106874;27;20620;-58
2023/09/13 09:34:18;;;;;;;9.30;2.15;;;;;;;;;;5110385;27;20063;-59
2023/09/13 09:36:46;;;;;;;5.72;2.15;;;;;;;;;;5114024;27;20056;-57
2023/09/13 09:39:15;;;;;;;5.82;1.98;;;;;;;;;;5103250;27;20052;-60
2023/09/13 09:41:41;;;;;;;5.75;1.60;;;;;;;;;;5104117;27;20052;-60
2023/09/13 09:44:08;;;;;;;4.57;1.65;;;;;;;;;;5103644;27;20502;-59
2023/09/13 09:46:35;;;;;;;4.22;1.60;;;;;;;;;;5103799;27;20139;-57
2023/09/13 09:49:04;;;;;;;7.78;2.22;;;;;;;;;;5103236;27;20127;-60
2023/09/13 09:51:31;;;;;;;5.20;1.65;;;;;;;;;;5103483;27;20052;-59
2023/09/13 09:53:58;;;;;;;4.63;1.77;;;;;;;;;;5103012;27;20486;-60
2023/09/13 09:56:24;;;;;;;2.22;1.70;;;;;;;;;;5102586;27;20067;-59
2023/09/13 09:58:51;;;;;;;6.40;1.90;;;;;;;;;;5105759;27;20059;-59
2023/09/13 10:01:18;;;;;;;5.78;2.00;;;;;;;;;;5110387;27;20051;-58
2023/09/13 10:03:45;;;;;;;4.20;1.58;;;;;;;;;;5106970;27;20048;-58
2023/09/13 10:06:12;;;;;;;3.78;1.90;;;;;;;;;;5107691;27;20051;-59
2023/09/13 10:08:41;;;;;;;6.72;2.05;;;;;;;;;;5122130;27;20054;-60
2023/09/13 10:11:13;;;;;;;3.97;1.95;;;;;;;;;;5123295;27;20067;-59
2023/09/13 10:13:40;;;;;;;2.25;1.35;;;;;;;;;;5116314;27;20506;-59
2023/09/13 10:16:08;;;;;;;4.53;1.60;;;;;;;;;;5123160;27;20047;-59
2023/09/13 10:18:41;;;;;;;5.05;1.70;;;;;;;;;;5106564;27;20058;-61
2023/09/13 10:21:08;;;;;;;4.32;1.60;;;;;;;;;;5119337;27;20043;-60
2023/09/13 10:23:42;;;;;;;4.50;1.52;;;;;;;;;;5108232;27;20055;-59
2023/09/13 10:26:13;;;;;;;5.13;1.30;;;;;;;;;;5106173;27;20519;-59
2023/09/13 10:28:41;;;;;;;2.47;1.30;;;;;;;;;;5107418;27;20074;-57
2023/09/13 10:31:14;;;;;;;5.50;1.52;;;;;;;;;;5117850;27;20056;-58
2023/09/13 10:33:43;;;;;;;2.88;1.30;;;;;;;;;;5125513;27;20150;-58
2023/09/13 10:36:12;;;;;;;3.47;1.35;;;;;;;;;;5115749;27;20131;-59
2023/09/13 10:38:44;;;;;;;4.00;1.25;;;;;;;;;;5105957;27;20592;-60
2023/09/13 10:41:17;;;;;;;3.35;1.45;;;;;;;;;;5126766;27;20643;-61
2023/09/13 10:43:44;;;;;;;4.15;1.33;;;;;;;;;;5113429;27;20539;-58
2023/09/13 10:46:11;;;;;;;3.47;1.20;;;;;;;;;;5108193;27;20579;-58
2023/09/13 10:48:38;;;;;;;6.50;1.42;;;;;;;;;;5126232;27;20572;-59
2023/09/13 10:51:05;;;;;;;6.60;1.45;;;;;;;;;;5113807;27;20426;-59
2023/09/13 10:53:32;;;;;;;3.83;1.25;;;;;;;;;;5123876;27;20494;-56
2023/09/13 10:56:00;;;;;;;5.10;1.48;;;;;;;;;;5107712;27;20568;-59
2023/09/13 10:58:26;;;;;;;4.97;1.30;;;;;;;;;;5120365;27;20567;-57
2023/09/13 11:00:54;;;;;;;3.58;1.13;;;;;;;;;;5120836;27;20055;-59
2023/09/13 11:03:21;;;;;;;3.30;1.20;;;;;;;;;;5119795;27;20051;-60
2023/09/13 11:05:49;;;;;;;7.05;2.42;;;;;;;;;;5121541;27;20048;-59
2023/09/13 11:08:29;;;;;;;9.68;1.95;;;;;;;;;;5113336;27;20532;-59
2023/09/13 11:10:56;;;;;;;4.70;1.50;;;;;;;;;;5106454;27;20999;-59
2023/09/13 11:13:30;;;;;;;6.22;1.60;;;;;;;;;;5119179;27;20056;-58
2023/09/13 11:16:01;;;;;;;3.72;1.60;;;;;;;;;;5124353;27;20166;-55
2023/09/13 11:18:28;;;;;;;5.55;1.83;;;;;;;;;;5110365;27;20128;-59
2023/09/13 11:20:55;;;;;;;5.45;1.83;;;;;;;;;;5126001;27;20043;-56
2023/09/13 11:23:22;;;;;;;9.40;1.85;;;;;;;;;;5108629;27;20052;-58
2023/09/13 11:26:02;;;;;;;4.35;1.40;;;;;;;;;;5119075;27;20051;-58
2023/09/13 11:28:38;;;;;;;8.50;2.10;;;;;;;;;;5105771;27;20109;-59
2023/09/13 11:31:06;;;;;;;4.80;1.65;;;;;;;;;;5105567;27;20056;-57
2023/09/13 11:33:44;;;;;;;4.00;1.70;;;;;;;;;;5120251;27;20047;-58
2023/09/13 11:36:14;;;;;;;3.67;1.85;;;;;;;;;;5124702;27;20051;-59
2023/09/13 11:38:41;;;;;;;5.70;1.67;;;;;;;;;;5109473;27;20090;-59
2023/09/13 11:41:08;;;;;;;4.65;1.77;;;;;;;;;;5104828;28;20052;-58
2023/09/13 11:43:36;;;;;;;7.13;1.90;;;;;;;;;;5105386;27;20056;-58
2023/09/13 11:46:03;;;;;;;5.05;1.27;;;;;;;;;;5125874;27;20100;-59
2023/09/13 11:48:39;;;;;;;4.35;1.58;;;;;;;;;;5109282;27;20114;-60
2023/09/13 11:51:23;;;;;;;9.73;1.60;;;;;;;;;;5105658;27;20059;-58
2023/09/13 11:53:51;;;;;;;5.85;1.77;;;;;;;;;;5120812;27;20525;-59
2023/09/13 11:56:31;;;;;;;4.63;1.25;;;;;;;;;;5105381;28;20505;-57
2023/09/13 11:59:12;;;;;;;2.55;1.17;;;;;;;;;;5104421;27;20052;-59
2023/09/13 12:01:43;;;;;;;2.38;1.20;;;;;;;;;;5116610;27;20078;-57
2023/09/13 12:04:11;;;;;;;4.55;1.30;;;;;;;;;;5123772;27;20594;-58
2023/09/13 12:06:58;;;;;;;7.28;2.08;;;;;;;;;;5106887;27;20209;-58
2023/09/13 12:09:32;;;;;;;5.53;1.95;;;;;;;;;;5123487;27;20651;-61
2023/09/13 12:12:01;;;;;;;6.25;1.83;;;;;;;;;;5104825;27;20060;-59
2023/09/13 12:14:36;;;;;;;3.42;1.83;;;;;;;;;;5104398;28;20064;-59
2023/09/13 12:17:22;;;;;;;2.33;1.38;;;;;;;;;;5105117;27;20514;-59
2023/09/13 12:19:51;;;;;;;7.18;2.10;;;;;;;;;;5105373;27;20158;-56
2023/09/13 12:22:19;;;;;;;4.20;1.55;;;;;;;;;;5116599;27;20069;-58
2023/09/13 12:24:50;;;;;;;7.35;1.90;;;;;;;;;;5104922;27;20056;-59
2023/09/13 12:27:17;;;;;;;6.28;1.83;;;;;;;;;;5104628;28;20055;-57
2023/09/13 12:29:44;;;;;;;3.60;1.60;;;;;;;;;;5105006;27;20048;-60
2023/09/13 12:32:10;;;;;;;5.03;1.67;;;;;;;;;;5115304;27;20548;-59
2023/09/13 12:34:36;;;;;;;5.30;2.15;;;;;;;;;;5111347;27;20109;-59
2023/09/13 12:37:03;;;;;;;4.32;1.88;;;;;;;;;;5104962;28;20060;-59
2023/09/13 12:39:30;;;;;;;5.68;1.73;;;;;;;;;;5109748;27;20052;-60
2023/09/13 12:41:56;;;;;;;6.22;2.10;;;;;;;;;;5115873;27;20055;-58
2023/09/13 12:44:23;;;;;;;5.65;1.95;;;;;;;;;;5102994;27;20052;-59
2023/09/13 12:46:51;;;;;;;4.90;1.90;;;;;;;;;;5118919;27;20044;-61
2023/09/13 12:49:18;;;;;;;4.80;1.80;;;;;;;;;;5124522;27;20056;-59
2023/09/13 12:51:45;;;;;;;3.80;1.70;;;;;;;;;;5108844;27;20429;-57
2023/09/13 12:54:13;;;;;;;4.82;1.77;;;;;;;;;;5109985;27;20058;-60
2023/09/13 12:56:40;;;;;;;3.42;1.83;;;;;;;;;;5123851;27;20058;-60
2023/09/13 12:59:06;;;;;;;5.63;1.73;;;;;;;;;;5109281;27;20538;-60
2023/09/13 13:01:35;;;;;;;5.18;1.83;;;;;;;;;;5103433;27;20051;-58
2023/09/13 13:04:08;;;;;;;3.83;1.98;;;;;;;;;;5117826;27;20101;-58
2023/09/13 13:06:55;;;;;;;2.38;1.95;;;;;;;;;;5122486;27;20588;-59
2023/09/13 13:09:21;;;;;;;4.75;2.08;;;;;;;;;;5115338;27;20052;-59
2023/09/13 13:11:49;;;;;;;3.63;2.33;;;;;;;;;;5115298;27;20055;-59
2023/09/13 13:14:18;;;;;;;4.10;2.30;;;;;;;;;;5120826;27;20063;-63
2023/09/13 13:16:52;;;;;;;3.75;1.70;;;;;;;;;;5115763;27;20137;-61
2023/09/13 13:19:37;;;;;;;2.83;1.92;;;;;;;;;;5125636;27;20592;-60
2023/09/13 13:22:07;;;;;;;2.92;1.95;;;;;;;;;;5112764;27;20643;-61
2023/09/13 13:24:38;;;;;;;2.28;1.88;;;;;;;;;;5109761;27;20428;-62
2023/09/13 13:27:05;;;;;;;3.45;2.33;;;;;;;;;;5109991;27;20048;-60
2023/09/13 13:29:33;;;;;;;3.13;2.30;;;;;;;;;;5112654;27;20379;-61
2023/09/13 13:32:00;;;;;;;3.03;2.25;;;;;;;;;;5116614;27;20465;-59
2023/09/13 13:34:27;;;;;;;6.30;2.40;;;;;;;;;;5120603;27;20058;-62
2023/09/13 13:36:53;;;;;;;4.82;2.85;;;;;;;;;;5114735;27;20062;-60
2023/09/13 13:39:20;;;;;;;6.32;2.50;;;;;;;;;;5122628;27;20052;-61
2023/09/13 13:41:46;;;;;;;4.82;2.00;;;;;;;;;;5118562;27;20047;-60
2023/09/13 13:44:15;;;;;;;4.22;1.95;;;;;;;;;;5111247;27;20055;-61
2023/09/13 13:46:41;;;;;;;3.50;1.90;;;;;;;;;;5111695;27;20086;-58
2023/09/13 13:49:10;;;;;;;3.15;1.85;;;;;;;;;;5119583;27;20102;-61
2023/09/13 13:51:37;;;;;;;4.18;2.03;;;;;;;;;;5118302;27;20139;-58
2023/09/13 13:54:04;;;;;;;5.18;1.83;;;;;;;;;;5112099;27;20536;-61
2023/09/13 13:56:31;;;;;;;3.90;1.85;;;;;;;;;;5124992;27;20059;-61
2023/09/13 13:58:58;;;;;;;5.38;2.30;;;;;;;;;;5123319;27;20058;-62
2023/09/13 14:01:25;;;;;;;2.88;1.90;;;;;;;;;;5116110;27;20043;-61
2023/09/13 14:03:52;;;;;;;3.33;1.63;;;;;;;;;;5121313;27;20056;-60
2023/09/13 14:06:18;;;;;;;4.93;2.20;;;;;;;;;;5120668;27;20056;-62
2023/09/13 14:08:45;;;;;;;4.80;1.75;;;;;;;;;;5124763;27;20051;-56
2023/09/13 14:11:11;;;;;;;5.28;1.85;;;;;;;;;;5103241;27;20375;-62
2023/09/13 14:13:37;;;;;;;5.18;2.17;;;;;;;;;;5124267;27;20080;-61
2023/09/13 14:16:05;;;;;;;3.60;2.15;;;;;;;;;;5124979;27;20649;-58
2023/09/13 14:18:32;;;;;;;3.97;2.10;;;;;;;;;;5127200;27;20138;-60
2023/09/13 14:20:58;;;;;;;2.97;1.85;;;;;;;;;;5116516;27;20047;-62
2023/09/13 14:23:25;;;;;;;5.93;1.95;;;;;;;;;;5103733;27;20340;-60
2023/09/13 14:25:52;;;;;;;5.68;2.30;;;;;;;;;;5120713;27;20502;-63
2023/09/13 14:28:18;;;;;;;5.88;2.47;;;;;;;;;;5124738;27;20055;-62
2023/09/13 14:30:45;;;;;;;4.38;2.10;;;;;;;;;;5129221;27;20058;-62
2023/09/13 14:33:16;;;;;;;3.08;2.00;;;;;;;;;;5128522;27;20060;-60
2023/09/13 14:35:43;;;;;;;4.60;1.88;;;;;;;;;;5106218;27;20139;-63
2023/09/13 14:38:10;;;;;;;4.93;2.28;;;;;;;;;;5133813;27;20546;-62
2023/09/13 14:40:36;;;;;;;6.40;3.00;;;;;;;;;;5147373;27;20478;-63